Time;durP1;ratioP1;P1;durP2;ratioP2;P2;SDS_P1;SDS_P2;PMS_P1;PMS_P2;Temp;Humidity;BMP_temperature;BMP_pressure;BME280_temperature;BME280_humidity;BME280_pressure;Samples;Min_cycle;Max_cycle;Signal;HPM_P1;HPM_P2
2021/09/15 00:00:24;;;;;;;15.57;14.17;;;20.00;99.90;;;;;;6203039;28;20233;-64
2021/09/15 00:03:27;;;;;;;15.20;13.97;;;19.90;99.90;;;;;;6221657;28;20244;-64
2021/09/15 00:06:31;;;;;;;15.83;14.53;;;19.90;99.90;;;;;;6227460;28;20236;-64
2021/09/15 00:09:34;;;;;;;14.23;13.13;;;19.90;99.90;;;;;;6211024;28;20245;-63
2021/09/15 00:12:38;;;;;;;15.07;13.77;;;19.90;99.90;;;;;;6204652;28;20659;-63
2021/09/15 00:15:42;;;;;;;15.03;13.80;;;19.80;99.90;;;;;;6213443;28;20235;-63
2021/09/15 00:18:45;;;;;;;14.67;13.13;;;19.80;99.90;;;;;;6214391;28;20228;-63
2021/09/15 00:21:48;;;;;;;15.43;14.27;;;19.80;99.90;;;;;;6207964;28;20228;-62
2021/09/15 00:24:52;;;;;;;15.33;13.93;;;19.70;99.90;;;;;;6213746;28;20221;-62
2021/09/15 00:27:55;;;;;;;14.90;13.70;;;19.70;99.90;;;;;;6217221;28;20233;-62
2021/09/15 00:30:59;;;;;;;14.73;13.50;;;19.70;99.90;;;;;;6212263;28;20292;-63
2021/09/15 00:34:02;;;;;;;15.57;14.40;;;19.70;99.90;;;;;;6206383;28;20248;-63
2021/09/15 00:37:05;;;;;;;15.40;14.23;;;19.60;99.90;;;;;;6223811;28;20233;-63
2021/09/15 00:40:10;;;;;;;16.00;14.70;;;19.60;99.90;;;;;;6232500;23;20231;-63
2021/09/15 00:43:13;;;;;;;14.93;13.53;;;19.60;99.90;;;;;;6203838;28;20229;-63
2021/09/15 00:46:18;;;;;;;16.70;15.33;;;19.50;99.90;;;;;;6198370;28;20665;-63
2021/09/15 00:49:21;;;;;;;16.10;14.43;;;19.50;99.90;;;;;;6204285;28;20233;-63
2021/09/15 00:52:24;;;;;;;14.90;13.70;;;19.50;99.90;;;;;;6194000;28;20229;-63
2021/09/15 00:55:27;;;;;;;15.83;13.00;;;19.50;99.90;;;;;;6202456;28;20248;-63
2021/09/15 00:58:30;;;;;;;16.90;13.57;;;19.40;99.90;;;;;;6202367;28;20229;-63
2021/09/15 01:01:35;;;;;;;15.30;14.10;;;19.50;99.90;;;;;;6202106;28;20230;-63
2021/09/15 01:04:39;;;;;;;15.13;13.80;;;19.30;99.90;;;;;;6201871;28;20244;-63
2021/09/15 01:07:43;;;;;;;16.43;15.03;;;19.30;99.90;;;;;;6201580;28;20240;-63
2021/09/15 01:10:46;;;;;;;14.93;13.83;;;19.30;99.90;;;;;;6201653;28;20252;-62
2021/09/15 01:13:50;;;;;;;14.80;13.63;;;19.30;99.90;;;;;;6201285;28;20622;-62
2021/09/15 01:16:58;;;;;;;14.90;13.50;;;19.20;99.90;;;;;;6201479;28;20229;-62
2021/09/15 01:20:04;;;;;;;15.13;13.90;;;19.20;99.90;;;;;;6201370;28;20589;-62
2021/09/15 01:23:09;;;;;;;14.20;12.90;;;19.20;99.90;;;;;;6201261;28;20320;-62
2021/09/15 01:26:12;;;;;;;13.60;12.50;;;19.20;99.90;;;;;;6201212;28;20229;-62
2021/09/15 01:29:17;;;;;;;14.00;12.77;;;19.20;99.90;;;;;;6201371;28;20233;-62
2021/09/15 01:32:20;;;;;;;14.73;13.53;;;19.10;99.90;;;;;;6201002;28;20238;-62
2021/09/15 01:35:24;;;;;;;14.30;13.20;;;19.10;99.90;;;;;;6201207;28;20240;-62
2021/09/15 01:38:28;;;;;;;13.60;12.60;;;19.00;99.90;;;;;;6201119;28;20591;-63
2021/09/15 01:41:31;;;;;;;15.23;14.03;;;19.00;99.90;;;;;;6201351;28;20264;-63
2021/09/15 01:44:36;;;;;;;13.77;12.77;;;19.00;99.90;;;;;;6201446;28;20229;-62
2021/09/15 01:47:40;;;;;;;14.80;13.67;;;19.00;99.90;;;;;;6201113;28;20261;-62
2021/09/15 01:50:44;;;;;;;14.43;13.33;;;19.00;99.90;;;;;;6200995;28;20233;-62
2021/09/15 01:53:48;;;;;;;14.83;13.63;;;18.90;99.90;;;;;;6191379;28;20252;-62
2021/09/15 01:56:51;;;;;;;14.97;13.77;;;18.80;99.90;;;;;;6201103;28;20237;-62
2021/09/15 01:59:55;;;;;;;13.50;12.50;;;18.80;99.90;;;;;;6205898;28;20469;-62
2021/09/15 02:02:58;;;;;;;15.73;14.10;;;18.80;99.90;;;;;;6206039;28;20244;-62
2021/09/15 02:06:02;;;;;;;15.67;14.43;;;18.70;99.90;;;;;;6205495;28;20230;-62
2021/09/15 02:09:07;;;;;;;15.60;14.20;;;18.70;99.90;;;;;;6205498;28;20568;-62
2021/09/15 02:12:10;;;;;;;14.83;13.63;;;18.60;99.90;;;;;;6205425;28;20225;-62
2021/09/15 02:15:14;;;;;;;14.87;13.53;;;18.60;99.90;;;;;;6205371;28;20209;-62
2021/09/15 02:18:17;;;;;;;14.70;13.40;;;18.60;99.90;;;;;;6205950;28;20268;-63
2021/09/15 02:21:21;;;;;;;14.00;13.00;;;18.60;99.90;;;;;;6205371;28;20225;-63
2021/09/15 02:24:25;;;;;;;14.77;12.40;;;18.60;99.90;;;;;;6205632;28;20201;-63
2021/09/15 02:27:29;;;;;;;14.13;13.00;;;18.60;99.90;;;;;;6204609;28;20658;-63
2021/09/15 02:30:32;;;;;;;14.70;13.57;;;18.60;99.90;;;;;;6205268;28;20237;-63
2021/09/15 02:33:35;;;;;;;14.87;13.40;;;18.60;99.90;;;;;;6204955;28;20316;-63
2021/09/15 02:36:38;;;;;;;14.20;13.00;;;18.60;99.90;;;;;;6205203;28;20623;-62
2021/09/15 02:39:42;;;;;;;16.73;15.23;;;18.50;99.90;;;;;;6205118;28;20468;-61
2021/09/15 02:42:45;;;;;;;15.80;14.30;;;18.50;99.90;;;;;;6204974;28;20496;-61
2021/09/15 02:45:49;;;;;;;15.47;14.07;;;18.50;99.90;;;;;;6205319;28;20231;-62
2021/09/15 02:48:52;;;;;;;15.13;13.80;;;18.40;99.90;;;;;;6205512;28;20225;-62
2021/09/15 02:51:55;;;;;;;16.37;14.80;;;18.40;99.90;;;;;;6205469;28;20229;-62
2021/09/15 02:54:59;;;;;;;17.50;16.00;;;18.40;99.90;;;;;;6195859;28;20244;-62
2021/09/15 02:58:03;;;;;;;15.53;14.13;;;18.40;99.90;;;;;;6204923;28;20229;-62
2021/09/15 03:01:07;;;;;;;16.23;14.90;;;18.40;99.90;;;;;;6204338;28;20241;-62
2021/09/15 03:04:10;;;;;;;16.17;14.87;;;18.40;99.90;;;;;;6204275;28;20999;-62
2021/09/15 03:07:13;;;;;;;14.47;13.30;;;18.30;99.90;;;;;;6204217;28;20233;-61
2021/09/15 03:10:17;;;;;;;15.73;14.43;;;18.30;99.90;;;;;;6203273;28;20238;-62
2021/09/15 03:13:21;;;;;;;16.53;15.20;;;18.30;99.90;;;;;;6204131;28;20475;-63
2021/09/15 03:16:25;;;;;;;16.10;14.70;;;18.30;99.90;;;;;;6204110;28;20795;-62
2021/09/15 03:19:28;;;;;;;14.70;13.50;;;18.20;99.90;;;;;;6203711;28;20260;-62
2021/09/15 03:22:31;;;;;;;16.30;14.73;;;18.30;99.90;;;;;;6203929;28;20481;-62
2021/09/15 03:25:36;;;;;;;16.60;15.00;;;18.30;99.90;;;;;;6203770;28;20222;-62
2021/09/15 03:28:39;;;;;;;15.33;13.90;;;18.30;99.90;;;;;;6204145;28;20786;-62
2021/09/15 03:31:42;;;;;;;15.60;14.30;;;18.20;99.90;;;;;;6203978;28;20240;-63
2021/09/15 03:34:45;;;;;;;16.67;15.37;;;18.20;99.90;;;;;;6204011;28;20499;-62
2021/09/15 03:37:49;;;;;;;15.17;13.97;;;18.20;99.90;;;;;;6203787;28;20233;-63
2021/09/15 03:40:53;;;;;;;15.37;14.07;;;18.10;99.90;;;;;;6203429;28;20241;-64
2021/09/15 03:43:56;;;;;;;14.57;13.30;;;18.10;99.90;;;;;;6203723;28;20480;-63
2021/09/15 03:46:59;;;;;;;14.50;13.10;;;18.10;99.90;;;;;;6203101;28;20824;-63
2021/09/15 03:50:03;;;;;;;15.93;14.50;;;18.00;99.90;;;;;;6203012;28;20802;-63
2021/09/15 03:53:06;;;;;;;15.43;14.13;;;18.00;99.90;;;;;;6203246;28;20480;-63
2021/09/15 03:56:10;;;;;;;15.40;14.10;;;18.00;99.90;;;;;;6202840;28;20990;-63
2021/09/15 03:59:14;;;;;;;16.03;14.73;;;18.00;99.90;;;;;;6198781;28;20469;-63
2021/09/15 04:02:17;;;;;;;15.53;14.40;;;18.00;99.90;;;;;;6202665;28;20492;-63
2021/09/15 04:05:20;;;;;;;15.87;14.57;;;18.00;99.90;;;;;;6202859;28;20567;-64
2021/09/15 04:08:24;;;;;;;16.00;14.60;;;17.90;99.90;;;;;;6202868;28;20469;-64
2021/09/15 04:11:28;;;;;;;15.87;14.50;;;17.90;99.90;;;;;;6202659;28;20476;-64
2021/09/15 04:14:31;;;;;;;15.77;14.57;;;17.90;99.90;;;;;;6202604;28;20472;-63
2021/09/15 04:17:34;;;;;;;15.30;14.00;;;17.80;99.90;;;;;;6202433;28;20557;-63
2021/09/15 04:20:38;;;;;;;14.30;13.20;;;17.70;99.90;;;;;;6202326;28;20857;-62
2021/09/15 04:23:51;;;;;;;16.20;14.70;;;17.70;99.90;;;;;;6202709;28;20485;-62
2021/09/15 04:33:36;;;;;;;14.83;13.53;;;17.70;99.90;;;;;;6202830;28;20480;-63
2021/09/15 04:36:39;;;;;;;14.23;13.10;;;17.70;99.90;;;;;;6202230;28;20468;-63
2021/09/15 04:39:43;;;;;;;16.07;14.57;;;17.70;99.90;;;;;;6202484;28;20472;-63
2021/09/15 04:42:47;;;;;;;15.63;14.23;;;17.70;99.90;;;;;;6201869;28;20491;-62
2021/09/15 04:45:50;;;;;;;15.10;13.70;;;17.60;99.90;;;;;;6201932;28;20472;-63
2021/09/15 04:48:54;;;;;;;14.80;13.60;;;17.60;99.90;;;;;;6201930;28;20823;-63
2021/09/15 04:51:57;;;;;;;15.23;13.73;;;17.60;99.90;;;;;;6202145;28;20479;-63
2021/09/15 04:55:01;;;;;;;15.80;14.60;;;17.60;99.90;;;;;;6201814;28;20495;-63
2021/09/15 04:58:05;;;;;;;17.00;15.13;;;17.60;99.90;;;;;;6201907;28;20495;-63
2021/09/15 05:01:09;;;;;;;14.63;13.43;;;17.50;99.90;;;;;;6201705;28;20488;-63
2021/09/15 05:04:12;;;;;;;16.17;14.87;;;17.50;99.90;;;;;;6201367;28;20472;-63
2021/09/15 05:07:17;;;;;;;16.03;14.63;;;17.50;99.90;;;;;;6201474;28;20491;-64
2021/09/15 05:10:24;;;;;;;14.63;13.53;;;17.50;99.90;;;;;;6201636;28;20488;-63
2021/09/15 05:13:29;;;;;;;14.37;12.90;;;17.70;99.90;;;;;;6202125;28;20985;-64
2021/09/15 05:16:32;;;;;;;14.43;13.03;;;17.70;99.90;;;;;;6201640;28;20479;-63
2021/09/15 05:19:36;;;;;;;15.40;14.20;;;17.70;99.90;;;;;;6200709;28;20819;-64
2021/09/15 05:22:39;;;;;;;15.47;14.07;;;17.70;99.90;;;;;;6200379;28;20496;-63
2021/09/15 05:25:42;;;;;;;15.47;14.17;;;17.70;99.90;;;;;;6200000;28;20538;-63
2021/09/15 05:28:47;;;;;;;16.33;14.77;;;17.70;99.90;;;;;;6199559;28;20481;-63
2021/09/15 05:31:51;;;;;;;16.53;15.03;;;17.80;99.90;;;;;;6200383;28;20491;-64
2021/09/15 05:34:54;;;;;;;16.57;15.17;;;17.80;99.90;;;;;;6200835;28;20472;-63
2021/09/15 05:37:58;;;;;;;15.90;14.53;;;17.90;99.90;;;;;;6200498;28;20232;-63
2021/09/15 05:41:01;;;;;;;16.70;15.30;;;18.00;99.90;;;;;;6200744;28;20245;-63
2021/09/15 05:44:05;;;;;;;16.50;15.20;;;18.00;99.90;;;;;;6200745;28;20476;-63
2021/09/15 05:47:09;;;;;;;16.53;15.07;;;18.10;99.90;;;;;;6200958;28;20530;-63
2021/09/15 05:50:12;;;;;;;16.60;15.10;;;18.10;99.90;;;;;;6200446;28;20483;-63
2021/09/15 05:53:19;;;;;;;16.83;15.30;;;18.30;99.90;;;;;;6199659;28;20920;-64
2021/09/15 05:56:22;;;;;;;17.30;15.90;;;18.40;99.90;;;;;;6199649;28;20551;-64
2021/09/15 05:59:27;;;;;;;17.00;15.13;;;18.50;99.90;;;;;;6199326;28;20225;-63
2021/09/15 06:02:30;;;;;;;15.97;14.73;;;18.60;99.90;;;;;;6199389;28;20480;-63
2021/09/15 06:05:34;;;;;;;17.10;15.60;;;18.80;99.90;;;;;;6200379;28;20233;-64
2021/09/15 06:08:37;;;;;;;18.13;16.50;;;18.90;99.90;;;;;;6192663;28;20481;-64
2021/09/15 06:11:40;;;;;;;18.40;16.60;;;19.00;99.90;;;;;;6201931;28;20249;-64
2021/09/15 06:14:44;;;;;;;19.20;17.47;;;19.10;99.90;;;;;;6202310;28;20241;-65
2021/09/15 06:17:47;;;;;;;18.03;16.37;;;19.40;99.90;;;;;;6202116;28;20600;-65
2021/09/15 06:20:51;;;;;;;17.40;16.00;;;19.60;99.90;;;;;;6200901;28;20645;-65
2021/09/15 06:23:54;;;;;;;16.40;14.70;;;19.90;99.90;;;;;;6200449;28;20240;-65
2021/09/15 06:26:58;;;;;;;17.00;15.30;;;20.40;99.90;;;;;;6200800;28;20241;-65
2021/09/15 06:30:02;;;;;;;17.60;16.17;;;21.50;99.90;;;;;;6202116;28;20233;-65
2021/09/15 06:33:07;;;;;;;17.83;16.00;;;22.80;99.90;;;;;;6201040;28;20233;-65
2021/09/15 06:36:13;;;;;;;18.10;16.60;;;23.90;97.90;;;;;;6200392;28;20224;-65
2021/09/15 06:39:16;;;;;;;17.53;16.17;;;25.00;95.90;;;;;;6200983;28;20217;-65
2021/09/15 06:42:19;;;;;;;17.03;15.63;;;26.00;93.50;;;;;;6200021;28;20249;-65
2021/09/15 06:45:23;;;;;;;17.90;16.37;;;26.80;91.60;;;;;;6204457;28;20208;-65
2021/09/15 06:48:27;;;;;;;16.50;15.10;;;27.50;88.30;;;;;;6205056;28;20236;-65
2021/09/15 06:51:30;;;;;;;18.33;16.60;;;28.20;83.80;;;;;;6205380;28;20276;-65
2021/09/15 06:54:33;;;;;;;17.10;15.80;;;28.90;78.90;;;;;;6204800;28;20229;-65
2021/09/15 06:57:36;;;;;;;17.00;15.33;;;29.40;75.90;;;;;;6204660;28;20225;-65
2021/09/15 07:00:41;;;;;;;16.43;15.03;;;30.00;72.80;;;;;;6204674;28;20578;-65
2021/09/15 07:03:44;;;;;;;16.63;15.33;;;30.70;68.90;;;;;;6204174;28;20368;-65
2021/09/15 07:06:47;;;;;;;17.33;15.87;;;31.20;65.10;;;;;;6204701;28;20269;-65
2021/09/15 07:09:51;;;;;;;17.42;15.90;;;31.70;62.50;;;;;;6199576;28;20232;-65
2021/09/15 07:12:54;;;;;;;16.70;15.23;;;32.40;59.80;;;;;;6203391;28;20391;-65
2021/09/15 07:15:58;;;;;;;15.50;14.18;;;32.90;57.90;;;;;;6191944;28;20537;-66
2021/09/15 07:19:02;;;;;;;17.10;15.35;;;33.40;56.10;;;;;;6190571;28;20220;-65
2021/09/15 07:22:05;;;;;;;15.40;14.15;;;33.80;54.40;;;;;;6200272;28;20232;-65
2021/09/15 07:25:09;;;;;;;15.95;14.55;;;34.20;53.00;;;;;;6200602;28;20240;-65
2021/09/15 07:28:13;;;;;;;17.35;15.85;;;34.80;52.10;;;;;;6186075;28;20608;-65
2021/09/15 07:31:17;;;;;;;16.25;14.98;;;35.60;49.60;;;;;;6189104;28;20685;-65
2021/09/15 07:34:20;;;;;;;15.43;14.23;;;36.40;47.80;;;;;;6191835;28;20221;-65
2021/09/15 07:37:23;;;;;;;15.52;14.52;;;36.90;45.90;;;;;;6191193;28;20225;-65
2021/09/15 07:40:27;;;;;;;15.68;14.32;;;37.40;44.70;;;;;;6202857;28;20248;-65
2021/09/15 07:43:30;;;;;;;14.63;13.43;;;37.80;43.50;;;;;;6190160;28;20240;-65
2021/09/15 07:46:34;;;;;;;15.02;13.70;;;38.20;42.90;;;;;;6190818;28;20232;-65
2021/09/15 07:49:37;;;;;;;15.13;14.02;;;39.00;41.80;;;;;;6203506;28;20237;-65
2021/09/15 07:52:42;;;;;;;14.73;13.32;;;39.90;39.80;;;;;;6203412;28;20576;-65
2021/09/15 07:55:45;;;;;;;15.52;14.32;;;40.40;38.60;;;;;;6201865;28;20239;-65
2021/09/15 07:58:48;;;;;;;14.32;13.23;;;41.20;37.40;;;;;;6203616;28;20225;-65
2021/09/15 08:01:52;;;;;;;15.27;14.05;;;41.80;36.00;;;;;;6202531;28;20232;-65
2021/09/15 08:04:56;;;;;;;14.55;13.25;;;42.50;35.00;;;;;;6187435;28;20222;-65
2021/09/15 08:08:01;;;;;;;15.02;13.70;;;43.40;33.70;;;;;;6196862;28;20236;-66
2021/09/15 08:11:05;;;;;;;14.45;13.25;;;44.10;31.80;;;;;;6193963;28;20236;-66
2021/09/15 08:14:08;;;;;;;13.55;12.65;;;43.80;31.60;;;;;;6191162;28;20313;-67
2021/09/15 08:17:13;;;;;;;14.38;13.35;;;44.10;31.00;;;;;;6172141;28;20230;-64
2021/09/15 08:20:16;;;;;;;13.52;12.55;;;44.80;30.10;;;;;;6191508;28;20243;-65
2021/09/15 08:23:19;;;;;;;13.88;13.07;;;45.40;29.50;;;;;;6197390;28;20233;-66
2021/09/15 08:26:22;;;;;;;14.00;12.88;;;46.10;29.00;;;;;;6202670;28;20239;-67
2021/09/15 08:29:26;;;;;;;13.48;12.57;;;47.10;28.10;;;;;;6187898;28;20732;-67
2021/09/15 08:32:30;;;;;;;14.20;13.15;;;47.50;27.50;;;;;;6179491;28;20231;-66
2021/09/15 08:35:33;;;;;;;13.07;12.13;;;47.50;26.70;;;;;;6180666;28;20234;-67
2021/09/15 08:38:36;;;;;;;12.90;12.00;;;46.90;26.50;;;;;;6197662;28;20232;-65
2021/09/15 08:41:40;;;;;;;13.23;12.27;;;46.30;26.70;;;;;;6201696;28;20242;-67
2021/09/15 08:44:44;;;;;;;12.85;12.05;;;45.60;27.20;;;;;;6201614;28;20240;-67
2021/09/15 08:47:49;;;;;;;12.23;11.43;;;45.40;27.30;;;;;;6199728;28;20243;-65
2021/09/15 08:50:53;;;;;;;12.43;11.63;;;46.10;26.90;;;;;;6184354;28;20239;-66
2021/09/15 08:53:56;;;;;;;11.35;10.65;;;47.20;26.30;;;;;;6199519;28;20233;-68
2021/09/15 08:56:59;;;;;;;11.75;11.05;;;48.20;25.30;;;;;;6201516;28;20238;-67
2021/09/15 09:00:03;;;;;;;12.45;11.75;;;49.70;24.40;;;;;;6201140;28;20228;-67
2021/09/15 09:03:07;;;;;;;12.30;11.45;;;50.50;23.60;;;;;;6201128;28;20228;-67
2021/09/15 09:06:11;;;;;;;12.52;11.57;;;50.00;23.80;;;;;;6201260;28;20611;-67
2021/09/15 09:09:15;;;;;;;12.70;11.65;;;50.70;23.40;;;;;;6195844;28;20237;-67
2021/09/15 09:12:19;;;;;;;12.13;10.60;;;51.60;22.90;;;;;;6181794;28;20221;-67
2021/09/15 09:15:25;;;;;;;13.23;12.13;;;52.60;22.60;;;;;;6189085;28;20219;-67
2021/09/15 09:18:30;;;;;;;11.48;10.57;;;53.80;21.60;;;;;;6190782;28;20207;-65
2021/09/15 09:21:35;;;;;;;11.98;11.18;;;54.30;21.00;;;;;;6201133;28;20256;-67
2021/09/15 09:24:52;;;;;;;11.55;10.48;;;54.50;20.60;;;;;;6201551;28;20225;-67
2021/09/15 09:27:55;;;;;;;11.48;10.57;;;54.80;20.50;;;;;;6201193;28;20224;-67
2021/09/15 09:30:59;;;;;;;12.32;11.43;;;54.80;20.10;;;;;;6201731;28;20235;-68
2021/09/15 09:34:05;;;;;;;9.95;9.10;;;54.10;20.10;;;;;;6200412;28;20679;-65
2021/09/15 09:37:12;;;;;;;11.18;10.48;;;54.50;20.00;;;;;;6200973;28;20233;-65
2021/09/15 09:40:20;;;;;;;11.45;10.75;;;54.80;19.50;;;;;;6200851;28;20236;-65
2021/09/15 09:43:24;;;;;;;10.93;10.25;;;55.30;19.70;;;;;;6200975;28;20233;-66
2021/09/15 09:46:32;;;;;;;11.57;10.77;;;55.50;19.50;;;;;;6194330;28;20240;-69
2021/09/15 09:50:00;;;;;;;12.93;11.90;;;55.70;19.50;;;;;;6192998;28;20233;-65
2021/09/15 09:53:04;;;;;;;11.57;10.70;;;55.40;19.60;;;;;;6176512;28;20704;-67
2021/09/15 09:56:08;;;;;;;12.20;11.10;;;55.30;19.40;;;;;;6177050;28;20269;-66
2021/09/15 09:59:12;;;;;;;11.10;10.40;;;55.20;19.40;;;;;;6176938;28;20233;-68
2021/09/15 10:02:16;;;;;;;14.00;12.73;;;55.10;19.50;;;;;;6176385;28;20244;-66
2021/09/15 10:05:23;;;;;;;14.00;12.90;;;54.70;19.70;;;;;;6176827;28;20594;-64
2021/09/15 10:08:26;;;;;;;13.23;12.13;;;54.10;20.30;;;;;;6176842;28;20244;-64
2021/09/15 10:11:29;;;;;;;14.35;12.98;;;53.60;20.40;;;;;;6176648;28;20252;-64
2021/09/15 10:14:32;;;;;;;14.77;13.43;;;51.60;21.20;;;;;;6176469;28;20243;-67
2021/09/15 10:17:38;;;;;;;14.40;13.18;;;49.00;22.80;;;;;;6175810;28;20238;-67
2021/09/15 10:20:48;;;;;;;13.85;12.90;;;47.30;24.00;;;;;;6179196;28;20315;-68
2021/09/15 10:23:51;;;;;;;14.35;13.02;;;46.00;24.90;;;;;;6175272;28;20590;-68
2021/09/15 10:26:59;;;;;;;15.00;13.80;;;44.90;26.20;;;;;;6179701;28;20258;-68
2021/09/15 10:30:08;;;;;;;14.07;12.98;;;43.70;27.20;;;;;;6179256;28;20231;-68
2021/09/15 10:33:44;;;;;;;12.88;11.88;;;42.80;28.00;;;;;;6180308;28;20234;-68
2021/09/15 10:36:49;;;;;;;13.30;12.45;;;41.80;29.20;;;;;;6180415;28;20235;-68
2021/09/15 10:39:54;;;;;;;15.10;13.80;;;40.80;30.30;;;;;;6180617;28;20257;-68
2021/09/15 10:42:57;;;;;;;15.30;14.23;;;39.90;31.60;;;;;;6180582;28;20221;-68
2021/09/15 10:46:20;;;;;;;14.18;13.27;;;38.70;33.50;;;;;;6180482;28;20252;-68
2021/09/15 10:49:46;;;;;;;14.68;13.35;;;38.00;34.70;;;;;;6180334;28;20544;-67
2021/09/15 10:53:18;;;;;;;14.43;13.23;;;37.40;35.60;;;;;;6180169;28;20718;-68
2021/09/15 10:56:36;;;;;;;13.82;12.82;;;36.10;37.80;;;;;;6180094;28;20528;-67
2021/09/15 10:59:53;;;;;;;13.35;12.23;;;35.90;38.50;;;;;;6180152;28;20238;-67
2021/09/15 11:03:16;;;;;;;15.15;13.98;;;35.70;38.80;;;;;;6180388;28;20586;-67
2021/09/15 11:06:22;;;;;;;13.57;12.63;;;35.50;39.00;;;;;;6179643;28;20213;-67
2021/09/15 11:09:39;;;;;;;13.63;12.43;;;35.60;39.70;;;;;;6180051;28;20216;-67
2021/09/15 11:12:46;;;;;;;12.35;11.55;;;35.30;39.20;;;;;;6180231;28;20246;-67
2021/09/15 11:15:53;;;;;;;13.13;12.05;;;35.50;39.00;;;;;;6171902;28;20702;-67
2021/09/15 11:18:58;;;;;;;14.02;13.02;;;35.30;38.80;;;;;;6180146;28;20226;-67
2021/09/15 11:22:01;;;;;;;14.15;13.07;;;35.00;39.40;;;;;;6179196;28;20741;-67
2021/09/15 11:25:07;;;;;;;14.73;13.65;;;34.20;40.80;;;;;;6179407;28;20225;-68
2021/09/15 11:28:11;;;;;;;14.55;13.55;;;34.20;41.30;;;;;;6175192;28;20291;-68
2021/09/15 11:31:15;;;;;;;13.90;12.80;;;34.10;41.30;;;;;;6178696;28;20246;-69
2021/09/15 11:34:18;;;;;;;14.57;13.38;;;34.10;41.90;;;;;;6179226;28;20233;-68
2021/09/15 11:37:23;;;;;;;14.02;12.98;;;34.20;41.80;;;;;;6179359;28;20567;-70
2021/09/15 11:40:31;;;;;;;13.77;12.73;;;34.30;41.40;;;;;;6179124;28;20318;-68
2021/09/15 11:43:36;;;;;;;13.93;13.05;;;33.00;43.30;;;;;;6179517;28;20421;-70
2021/09/15 11:46:39;;;;;;;13.13;12.13;;;33.20;43.30;;;;;;6179388;28;20225;-65
2021/09/15 11:49:42;;;;;;;15.50;14.43;;;33.00;43.20;;;;;;6179146;28;20225;-66
2021/09/15 11:52:48;;;;;;;14.85;13.75;;;33.50;43.20;;;;;;6179256;28;20280;-67
2021/09/15 11:55:59;;;;;;;14.30;13.20;;;33.70;42.60;;;;;;6179180;28;20689;-70
2021/09/15 11:59:03;;;;;;;13.88;12.98;;;34.20;40.70;;;;;;6179144;28;20252;-66
2021/09/15 12:02:11;;;;;;;15.13;14.02;;;34.40;40.80;;;;;;6177403;28;20233;-64
2021/09/15 12:05:14;;;;;;;14.85;13.65;;;34.30;40.60;;;;;;6179345;28;20243;-60
2021/09/15 12:08:18;;;;;;;14.45;13.35;;;34.20;40.70;;;;;;6201560;28;20240;-62
2021/09/15 12:11:22;;;;;;;14.50;13.18;;;33.50;42.00;;;;;;6200972;28;20265;-61
2021/09/15 12:14:33;;;;;;;13.65;12.68;;;33.80;41.40;;;;;;6197724;28;20229;-61
2021/09/15 12:17:37;;;;;;;13.70;12.80;;;33.90;39.70;;;;;;6177212;28;20305;-61
2021/09/15 12:20:46;;;;;;;13.45;12.55;;;33.70;40.90;;;;;;6178210;28;20229;-62
2021/09/15 12:23:50;;;;;;;14.23;13.25;;;34.10;40.80;;;;;;6178056;28;20226;-61
2021/09/15 12:26:55;;;;;;;14.43;13.43;;;34.70;40.10;;;;;;6178662;28;20681;-61
2021/09/15 12:30:04;;;;;;;13.95;13.05;;;34.80;40.00;;;;;;6177874;28;20234;-61
2021/09/15 12:33:07;;;;;;;14.27;13.32;;;34.70;40.00;;;;;;6173505;28;20237;-62
2021/09/15 12:36:14;;;;;;;14.20;13.10;;;34.90;40.00;;;;;;6177599;28;20229;-62
2021/09/15 12:39:18;;;;;;;14.05;12.82;;;34.70;39.60;;;;;;6178051;28;20240;-61
2021/09/15 12:42:24;;;;;;;13.88;12.82;;;34.80;39.50;;;;;;6176982;28;20300;-61
2021/09/15 12:45:28;;;;;;;14.35;13.35;;;34.70;39.50;;;;;;6177930;28;20210;-61
2021/09/15 12:48:39;;;;;;;13.90;12.80;;;35.30;39.70;;;;;;6177483;28;20569;-61
2021/09/15 12:51:42;;;;;;;14.10;13.20;;;35.40;39.70;;;;;;6178035;28;20256;-60
2021/09/15 12:54:54;;;;;;;15.25;14.07;;;35.30;39.90;;;;;;6177721;28;20230;-60
2021/09/15 12:58:00;;;;;;;14.43;13.32;;;35.30;39.90;;;;;;6177874;28;20229;-60
2021/09/15 13:01:06;;;;;;;13.98;12.88;;;35.00;39.70;;;;;;6181986;28;20237;-60
2021/09/15 13:04:11;;;;;;;14.77;13.57;;;34.50;40.00;;;;;;6190200;28;20235;-60
2021/09/15 13:07:16;;;;;;;16.30;15.02;;;34.50;40.50;;;;;;6197923;28;20240;-60
2021/09/15 13:10:19;;;;;;;15.90;14.52;;;34.60;40.70;;;;;;6187550;28;20233;-60
2021/09/15 13:13:27;;;;;;;15.75;14.48;;;34.80;40.30;;;;;;6194031;28;20676;-62
2021/09/15 13:16:30;;;;;;;14.75;13.43;;;34.70;40.40;;;;;;6184922;28;20233;-61
2021/09/15 13:19:33;;;;;;;15.23;13.93;;;34.50;40.50;;;;;;6187688;28;20221;-61
2021/09/15 13:22:37;;;;;;;14.82;13.52;;;34.40;41.10;;;;;;6186139;28;20236;-61
2021/09/15 13:25:41;;;;;;;15.55;14.45;;;34.20;41.30;;;;;;6194005;28;20251;-61
2021/09/15 13:28:45;;;;;;;15.32;14.13;;;34.10;42.00;;;;;;6201248;28;20696;-60
2021/09/15 13:31:52;;;;;;;15.82;14.63;;;34.20;41.80;;;;;;6201050;28;20236;-60
2021/09/15 13:34:55;;;;;;;17.27;15.70;;;34.10;41.90;;;;;;6196968;28;20236;-61
2021/09/15 13:37:58;;;;;;;16.27;15.07;;;34.00;42.10;;;;;;6201051;28;20248;-60
2021/09/15 13:41:02;;;;;;;16.85;15.45;;;33.70;42.60;;;;;;6200762;28;20549;-60
2021/09/15 13:44:08;;;;;;;16.75;15.25;;;33.50;43.20;;;;;;6201040;28;20243;-60
2021/09/15 13:47:11;;;;;;;15.68;14.48;;;33.20;43.50;;;;;;6200688;28;20622;-60
2021/09/15 13:50:15;;;;;;;16.70;15.25;;;32.80;44.50;;;;;;6200942;28;20727;-61
2021/09/15 13:53:19;;;;;;;16.15;14.90;;;32.80;44.70;;;;;;6201277;28;20243;-60
2021/09/15 13:56:23;;;;;;;15.05;14.02;;;32.80;44.50;;;;;;6205801;28;20259;-60
2021/09/15 13:59:27;;;;;;;15.88;14.63;;;32.70;44.70;;;;;;6197124;28;20248;-61
2021/09/15 14:02:31;;;;;;;14.80;13.70;;;32.70;44.70;;;;;;6183503;28;20570;-61
2021/09/15 14:05:35;;;;;;;15.43;14.32;;;32.60;44.50;;;;;;6200477;28;20669;-60
2021/09/15 14:08:38;;;;;;;14.48;13.48;;;32.50;44.70;;;;;;6205302;28;20236;-61
2021/09/15 14:11:41;;;;;;;15.32;14.23;;;32.30;44.90;;;;;;6205116;28;20259;-60
2021/09/15 14:14:45;;;;;;;14.77;13.68;;;32.20;45.20;;;;;;6199370;28;20693;-59
2021/09/15 14:17:49;;;;;;;16.05;14.85;;;32.10;45.30;;;;;;6181244;28;20238;-60
2021/09/15 14:20:52;;;;;;;15.55;14.13;;;32.00;45.40;;;;;;6181184;28;20253;-60
2021/09/15 14:23:56;;;;;;;15.32;14.02;;;32.00;45.70;;;;;;6180861;28;20225;-59
2021/09/15 14:26:59;;;;;;;14.70;13.60;;;31.70;45.80;;;;;;6180671;28;20233;-60
2021/09/15 14:30:04;;;;;;;14.20;13.20;;;31.70;46.30;;;;;;6181059;28;20233;-59
2021/09/15 14:33:07;;;;;;;14.98;13.88;;;31.50;46.50;;;;;;6180141;28;20237;-60
2021/09/15 14:36:11;;;;;;;14.57;13.43;;;31.40;46.70;;;;;;6180524;28;20229;-59
2021/09/15 14:39:14;;;;;;;15.20;13.80;;;31.30;47.00;;;;;;6179792;28;20687;-60
2021/09/15 14:42:17;;;;;;;14.65;13.52;;;31.30;47.50;;;;;;6180417;28;20233;-60
2021/09/15 14:45:21;;;;;;;16.00;14.55;;;31.20;47.10;;;;;;6180818;28;20217;-60
2021/09/15 14:48:25;;;;;;;14.25;13.18;;;31.10;47.20;;;;;;6180891;28;20225;-59
2021/09/15 14:51:28;;;;;;;14.48;13.02;;;31.10;47.40;;;;;;6181076;28;20527;-59
2021/09/15 14:54:31;;;;;;;14.70;13.60;;;31.10;47.60;;;;;;6181381;28;20205;-59
2021/09/15 14:57:35;;;;;;;15.18;13.93;;;31.10;47.30;;;;;;6181301;28;20245;-60
2021/09/15 15:00:40;;;;;;;13.45;12.27;;;31.00;47.40;;;;;;6180188;28;20239;-60
2021/09/15 15:03:43;;;;;;;12.98;11.98;;;30.80;47.80;;;;;;6180455;28;20554;-60
2021/09/15 15:06:47;;;;;;;14.65;13.45;;;30.80;48.30;;;;;;6180886;28;20567;-59
2021/09/15 15:09:51;;;;;;;12.85;11.85;;;30.70;48.00;;;;;;6180390;28;20291;-60
2021/09/15 15:12:55;;;;;;;13.67;12.27;;;30.60;48.30;;;;;;6179847;28;20255;-60
2021/09/15 15:15:59;;;;;;;13.47;12.40;;;30.50;48.60;;;;;;6179950;28;20547;-61
2021/09/15 15:19:03;;;;;;;14.63;13.38;;;30.40;48.90;;;;;;6179256;28;20237;-60
2021/09/15 15:22:06;;;;;;;14.53;13.30;;;30.10;49.40;;;;;;6179433;28;20281;-58
2021/09/15 15:25:12;;;;;;;15.05;13.85;;;30.10;50.50;;;;;;6179452;28;20609;-58
2021/09/15 15:28:16;;;;;;;14.97;13.33;;;29.90;50.90;;;;;;6179273;28;20238;-59
2021/09/15 15:31:22;;;;;;;14.10;12.80;;;29.70;51.70;;;;;;6190736;28;20232;-57
2021/09/15 15:34:25;;;;;;;14.40;13.40;;;29.50;52.40;;;;;;6203753;28;20243;-59
2021/09/15 15:37:28;;;;;;;15.40;14.20;;;29.60;52.90;;;;;;6203484;28;20240;-60
2021/09/15 15:40:33;;;;;;;16.83;15.53;;;29.50;53.10;;;;;;6203134;28;20285;-63
2021/09/15 15:43:37;;;;;;;17.60;15.13;;;29.30;53.50;;;;;;6199392;28;20255;-64